createdAt,value
2023-08-09T00:01:25.880Z,13.00
2023-08-09T00:03:52.802Z,13.00
2023-08-09T00:06:19.683Z,13.10
2023-08-09T00:08:46.629Z,13.00
2023-08-09T00:11:13.450Z,13.10
2023-08-09T00:13:40.261Z,13.10
2023-08-09T00:16:07.124Z,13.10
2023-08-09T00:18:34.304Z,13.10
2023-08-09T00:21:01.555Z,13.00
2023-08-09T00:23:28.595Z,13.10
2023-08-09T00:25:55.965Z,13.10
2023-08-09T00:28:22.790Z,13.10
2023-08-09T00:30:49.601Z,13.00
2023-08-09T00:33:16.373Z,13.00
2023-08-09T00:35:43.573Z,13.10
2023-08-09T00:38:10.553Z,13.10
2023-08-09T00:40:37.528Z,13.10
2023-08-09T00:43:04.425Z,13.10
2023-08-09T00:45:31.457Z,13.10
2023-08-09T00:47:59.803Z,13.10
2023-08-09T00:50:26.707Z,13.10
2023-08-09T00:52:53.945Z,13.10
2023-08-09T00:55:20.778Z,13.00
2023-08-09T00:57:47.616Z,13.10
2023-08-09T01:00:14.636Z,13.10
2023-08-09T01:02:41.550Z,13.00
2023-08-09T01:05:08.456Z,13.10
2023-08-09T01:07:40.521Z,13.10
2023-08-09T01:10:17.490Z,13.10
2023-08-09T01:12:47.304Z,13.10
2023-08-09T01:15:14.101Z,13.10
2023-08-09T01:17:41.645Z,13.10
2023-08-09T01:20:12.953Z,13.10
2023-08-09T01:22:40.298Z,13.10
2023-08-09T01:25:08.250Z,13.00
2023-08-09T01:27:35.376Z,13.00
2023-08-09T01:30:02.370Z,13.00
2023-08-09T01:32:29.434Z,13.00
2023-08-09T01:34:56.289Z,13.00
2023-08-09T01:37:49.560Z,13.10
2023-08-09T01:40:16.919Z,13.10
2023-08-09T01:42:43.709Z,13.10
2023-08-09T01:45:11.452Z,13.10
2023-08-09T01:47:39.467Z,13.10
2023-08-09T01:50:07.280Z,13.00
2023-08-09T01:52:34.164Z,12.90
2023-08-09T01:55:01.127Z,13.00
2023-08-09T01:57:28.060Z,12.90
2023-08-09T01:59:55.145Z,12.90
2023-08-09T02:02:21.916Z,13.00
2023-08-09T02:04:48.800Z,13.00
2023-08-09T02:07:15.767Z,12.90
2023-08-09T02:09:42.565Z,12.90
2023-08-09T02:12:09.283Z,12.90
2023-08-09T02:14:36.090Z,12.80
2023-08-09T02:17:04.303Z,12.80
2023-08-09T02:19:31.621Z,12.70
2023-08-09T02:21:59.080Z,12.60
2023-08-09T02:24:26.084Z,12.50
2023-08-09T02:26:53.340Z,12.40
2023-08-09T02:29:20.148Z,12.40
2023-08-09T02:31:47.723Z,12.40
2023-08-09T02:34:14.979Z,12.20
2023-08-09T02:36:41.753Z,12.10
2023-08-09T02:39:08.602Z,12.00
2023-08-09T02:41:35.798Z,11.90
2023-08-09T02:44:03.201Z,11.90
2023-08-09T02:46:30.952Z,11.90
2023-08-09T02:48:57.767Z,12.00
2023-08-09T02:51:24.775Z,12.10
2023-08-09T02:53:58.499Z,12.00
2023-08-09T02:56:25.306Z,11.90
2023-08-09T02:58:52.374Z,11.80
2023-08-09T03:01:20.691Z,11.70
2023-08-09T03:03:47.613Z,11.90
2023-08-09T03:06:14.817Z,11.50
2023-08-09T03:08:41.611Z,11.50
2023-08-09T03:11:08.379Z,11.60
2023-08-09T03:13:35.557Z,11.60
2023-08-09T03:16:02.631Z,11.50
2023-08-09T03:18:29.445Z,11.50
2023-08-09T03:20:56.295Z,11.40
2023-08-09T03:23:23.187Z,11.40
2023-08-09T03:25:49.964Z,11.70
2023-08-09T03:28:17.263Z,11.30
2023-08-09T03:30:44.120Z,11.30
2023-08-09T03:33:10.960Z,11.40
2023-08-09T03:35:37.811Z,11.30
2023-08-09T03:38:04.630Z,11.40
2023-08-09T03:40:31.458Z,11.40
2023-08-09T03:42:58.267Z,11.50
2023-08-09T03:45:25.106Z,11.40
2023-08-09T03:47:53.976Z,11.40
2023-08-09T03:50:21.550Z,11.30
2023-08-09T03:52:48.324Z,11.50
2023-08-09T03:55:15.059Z,11.40
2023-08-09T03:57:43.555Z,11.30
2023-08-09T04:00:18.852Z,11.30
2023-08-09T04:02:47.051Z,11.20
2023-08-09T04:05:21.096Z,11.40
2023-08-09T04:07:48.274Z,11.20
2023-08-09T04:18:18.664Z,11.70
2023-08-09T04:20:46.794Z,11.60
2023-08-09T04:23:14.333Z,11.90
2023-08-09T04:25:41.359Z,11.80
2023-08-09T04:28:11.044Z,11.70
2023-08-09T04:30:39.253Z,11.70
2023-08-09T04:33:07.314Z,11.90
2023-08-09T04:35:34.948Z,11.90
2023-08-09T04:38:08.688Z,11.90
2023-08-09T04:40:39.232Z,11.90
2023-08-09T04:43:06.027Z,11.80
2023-08-09T04:45:34.133Z,11.70
2023-08-09T04:48:04.766Z,11.80
2023-08-09T04:50:31.654Z,12.00
2023-08-09T04:52:58.454Z,12.00
2023-08-09T04:55:27.681Z,11.90
2023-08-09T04:57:54.809Z,12.10
2023-08-09T05:00:21.592Z,12.10
2023-08-09T05:02:48.403Z,12.00
2023-08-09T05:05:15.233Z,12.30
2023-08-09T05:07:42.425Z,12.10
2023-08-09T05:10:10.070Z,12.00
2023-08-09T05:12:36.945Z,12.10
2023-08-09T05:15:04.711Z,12.10
2023-08-09T05:17:31.555Z,12.20
2023-08-09T05:19:58.512Z,12.10
2023-08-09T05:22:25.238Z,12.20
2023-08-09T05:24:52.014Z,12.30
2023-08-09T05:27:18.785Z,12.10
2023-08-09T05:29:45.538Z,12.20
2023-08-09T05:32:13.085Z,12.20
2023-08-09T05:34:39.974Z,12.40
2023-08-09T05:37:06.820Z,12.40
2023-08-09T05:39:33.565Z,12.40
2023-08-09T05:42:00.349Z,12.50
2023-08-09T05:44:27.373Z,12.50
2023-08-09T05:46:54.257Z,12.50
2023-08-09T05:49:21.076Z,13.00
2023-08-09T05:51:48.073Z,12.60
2023-08-09T05:54:14.815Z,12.60
2023-08-09T05:56:41.781Z,12.60
2023-08-09T05:59:08.566Z,12.50
2023-08-09T06:01:35.353Z,12.70
2023-08-09T06:04:03.326Z,12.60
2023-08-09T06:06:30.283Z,12.70
2023-08-09T06:08:57.172Z,12.70
2023-08-09T06:11:24.114Z,12.70
2023-08-09T06:13:51.175Z,12.70
2023-08-09T06:16:18.094Z,12.80
2023-08-09T06:18:44.960Z,12.80
2023-08-09T06:21:12.020Z,12.80
2023-08-09T06:23:39.071Z,12.90
2023-08-09T06:26:06.054Z,12.90
2023-08-09T06:28:32.863Z,12.90
2023-08-09T06:31:00.033Z,13.00
2023-08-09T06:33:26.988Z,13.00
2023-08-09T06:35:53.792Z,13.00
2023-08-09T06:38:20.583Z,13.00
2023-08-09T06:40:47.565Z,13.10
2023-08-09T06:43:14.582Z,13.10
2023-08-09T06:45:41.400Z,13.00
2023-08-09T06:48:09.690Z,13.10
2023-08-09T06:50:37.096Z,13.10
2023-08-09T06:53:04.104Z,13.10
2023-08-09T06:55:30.879Z,13.20
2023-08-09T06:57:57.649Z,13.20
2023-08-09T07:00:24.426Z,13.30
2023-08-09T07:02:51.718Z,13.20
2023-08-09T07:05:22.641Z,13.20
2023-08-09T07:07:53.154Z,13.20
2023-08-09T07:10:19.980Z,13.40
2023-08-09T07:12:46.810Z,13.20
2023-08-09T07:15:13.928Z,13.30
2023-08-09T07:17:40.912Z,13.70
2023-08-09T07:20:12.872Z,13.30
2023-08-09T07:22:43.147Z,13.20
2023-08-09T07:25:10.672Z,13.20
2023-08-09T07:27:42.185Z,13.30
2023-08-09T07:30:10.478Z,13.20
2023-08-09T07:32:40.197Z,13.20
2023-08-09T07:35:07.971Z,13.30
2023-08-09T07:37:34.973Z,13.40
2023-08-09T07:40:02.671Z,13.40
2023-08-09T07:42:29.662Z,13.40
2023-08-09T07:44:56.533Z,13.30
2023-08-09T07:47:23.328Z,13.40
2023-08-09T07:49:50.212Z,13.30
2023-08-09T07:52:17.521Z,13.40
2023-08-09T07:54:46.507Z,13.40
2023-08-09T07:57:13.636Z,13.50
2023-08-09T07:59:40.891Z,13.50
2023-08-09T08:02:07.750Z,13.50
2023-08-09T08:04:35.508Z,13.40
2023-08-09T08:07:02.478Z,13.50
2023-08-09T08:09:29.398Z,13.50
2023-08-09T08:11:58.191Z,13.60
2023-08-09T08:14:25.700Z,13.60
2023-08-09T08:16:52.827Z,13.40
2023-08-09T08:19:19.586Z,13.50
2023-08-09T08:21:46.343Z,14.20
2023-08-09T08:24:13.165Z,13.60
2023-08-09T08:26:40.557Z,13.70
2023-08-09T08:29:07.603Z,13.70
2023-08-09T08:31:35.103Z,13.60
2023-08-09T08:34:02.274Z,13.50
2023-08-09T08:36:30.921Z,13.00
2023-08-09T08:38:58.785Z,13.50
2023-08-09T08:41:25.628Z,13.50
2023-08-09T08:43:52.486Z,13.80
2023-08-09T08:46:19.310Z,13.60
2023-08-09T08:48:48.085Z,14.00
2023-08-09T08:51:15.190Z,13.50
2023-08-09T08:53:42.253Z,13.60
2023-08-09T08:56:09.099Z,13.60
2023-08-09T08:58:35.871Z,13.60
2023-08-09T09:01:02.754Z,13.70
2023-08-09T09:03:29.556Z,14.00
2023-08-09T09:05:56.400Z,15.80
2023-08-09T09:08:24.315Z,13.60
2023-08-09T09:10:55.426Z,13.60
2023-08-09T09:13:26.251Z,13.70
2023-08-09T09:15:53.845Z,13.60
2023-08-09T09:18:21.328Z,13.60
2023-08-09T09:20:48.588Z,13.80
2023-08-09T09:23:25.468Z,13.80
2023-08-09T09:26:02.513Z,14.10
2023-08-09T09:28:29.396Z,14.10
2023-08-09T09:30:59.947Z,14.20
2023-08-09T09:33:34.567Z,14.00
2023-08-09T09:36:01.793Z,14.10
2023-08-09T09:38:28.836Z,14.00
2023-08-09T09:40:58.009Z,14.10
2023-08-09T09:43:27.702Z,14.00
2023-08-09T09:45:57.755Z,13.90
2023-08-09T09:48:24.648Z,13.80
2023-08-09T09:50:51.527Z,13.80
2023-08-09T09:53:18.861Z,13.80
2023-08-09T09:55:46.307Z,13.80
2023-08-09T09:58:17.038Z,13.90
2023-08-09T10:00:53.809Z,14.10
2023-08-09T10:03:26.217Z,14.20
2023-08-09T10:05:54.459Z,14.20
2023-08-09T10:08:21.248Z,14.40
2023-08-09T10:10:48.650Z,14.50
2023-08-09T10:13:16.681Z,14.30
2023-08-09T10:15:54.669Z,14.40
2023-08-09T10:18:24.450Z,14.50
2023-08-09T10:20:56.788Z,14.50
2023-08-09T10:23:25.446Z,14.50
2023-08-09T10:55:23.040Z,15.40
2023-08-09T10:57:50.450Z,15.50
2023-08-09T11:00:17.877Z,15.70
2023-08-09T11:02:48.211Z,16.00
2023-08-09T11:05:15.840Z,16.30
2023-08-09T11:07:46.249Z,16.40
2023-08-09T11:10:17.811Z,16.60
2023-08-09T11:12:44.914Z,16.70
2023-08-09T11:15:12.148Z,16.90
2023-08-09T11:17:48.790Z,16.50
2023-08-09T11:20:15.957Z,16.30
2023-08-09T11:22:55.586Z,16.40
2023-08-09T11:25:22.710Z,16.50
2023-08-09T11:27:56.373Z,16.50
2023-08-09T11:30:23.310Z,16.50
2023-08-09T11:32:55.498Z,16.40
2023-08-09T11:35:26.014Z,16.20
2023-08-09T11:37:53.544Z,16.20
2023-08-09T11:40:21.820Z,16.00
2023-08-09T11:42:48.693Z,15.90
2023-08-09T11:45:15.484Z,15.80
2023-08-09T11:47:48.455Z,15.70
2023-08-09T11:50:23.285Z,15.70
2023-08-09T11:52:54.178Z,15.60
2023-08-09T11:55:21.645Z,15.60
2023-08-09T11:57:48.663Z,15.70
2023-08-09T12:00:17.343Z,15.60
2023-08-09T12:02:44.724Z,15.70
2023-08-09T12:05:17.652Z,15.70
2023-08-09T12:07:44.593Z,15.60
2023-08-09T12:10:12.612Z,15.60
2023-08-09T12:12:40.172Z,15.40
2023-08-09T12:15:10.659Z,15.50
2023-08-09T12:17:37.656Z,15.70
2023-08-09T12:20:06.264Z,15.70
2023-08-09T12:28:50.012Z,16.40
2023-08-09T12:31:17.215Z,16.80
2023-08-09T12:33:44.654Z,17.00
2023-08-09T12:36:11.469Z,17.30
2023-08-09T12:38:38.597Z,17.30
2023-08-09T12:41:05.452Z,17.50
2023-08-09T12:43:32.726Z,17.40
2023-08-09T12:46:03.145Z,17.30
2023-08-09T12:48:31.043Z,17.80
2023-08-09T12:50:57.908Z,18.70
2023-08-09T12:53:24.761Z,18.30
2023-08-09T12:55:51.565Z,18.70
2023-08-09T12:58:18.467Z,19.00
2023-08-09T13:00:45.349Z,19.30
2023-08-09T13:03:12.920Z,19.20
2023-08-09T13:05:40.109Z,19.10
2023-08-09T13:08:06.922Z,18.90
2023-08-09T13:10:33.733Z,18.60
2023-08-09T13:13:00.631Z,18.30
2023-08-09T13:15:27.396Z,17.90
2023-08-09T13:17:54.206Z,17.70
2023-08-09T13:20:21.314Z,17.70
2023-08-09T13:22:48.433Z,17.00
2023-08-09T13:25:15.709Z,17.30
2023-08-09T13:27:42.565Z,17.30
2023-08-09T13:30:09.478Z,17.00
2023-08-09T13:32:36.810Z,17.60
2023-08-09T13:35:03.812Z,18.30
2023-08-09T13:37:30.641Z,19.10
2023-08-09T13:39:57.504Z,19.70
2023-08-09T13:42:25.719Z,19.80
2023-08-09T13:44:52.528Z,20.60
2023-08-09T13:47:19.243Z,21.50
2023-08-09T13:49:46.046Z,22.40
2023-08-09T13:52:12.932Z,22.50
2023-08-09T13:54:39.790Z,22.80
2023-08-09T13:57:06.691Z,22.10
2023-08-09T13:59:33.562Z,21.40
2023-08-09T14:02:00.664Z,20.80
2023-08-09T14:04:27.741Z,20.70
2023-08-09T14:06:54.813Z,20.90
2023-08-09T14:09:22.238Z,21.00
2023-08-09T14:11:49.102Z,21.80
2023-08-09T14:14:16.052Z,22.20
2023-08-09T14:16:43.599Z,22.10
2023-08-09T14:19:10.431Z,22.30
2023-08-09T14:21:37.347Z,22.60
2023-08-09T14:24:04.214Z,22.50
2023-08-09T14:26:31.307Z,22.30
2023-08-09T14:28:58.080Z,22.50
2023-08-09T14:31:24.935Z,22.50
2023-08-09T14:33:51.895Z,22.30
2023-08-09T14:36:18.746Z,22.30
2023-08-09T14:38:45.529Z,22.20
2023-08-09T14:41:12.363Z,21.70
2023-08-09T14:43:39.464Z,21.20
2023-08-09T14:46:06.332Z,20.80
2023-08-09T14:48:33.182Z,20.40
2023-08-09T14:50:59.922Z,20.10
2023-08-09T14:53:26.658Z,19.80
2023-08-09T14:55:53.852Z,19.40
2023-08-09T14:58:20.713Z,18.80
2023-08-09T15:00:48.825Z,18.30
2023-08-09T15:03:15.782Z,17.90
2023-08-09T15:05:42.810Z,17.70
2023-08-09T15:08:09.573Z,17.60
2023-08-09T15:10:38.458Z,17.60
2023-08-09T15:13:05.163Z,17.70
2023-08-09T15:15:31.939Z,17.60
2023-08-09T15:17:59.681Z,17.30
2023-08-09T15:20:27.180Z,17.00
2023-08-09T15:22:54.517Z,16.80
2023-08-09T15:25:24.257Z,16.70
2023-08-09T15:27:52.389Z,16.70
2023-08-09T15:30:22.381Z,16.70
2023-08-09T15:32:49.876Z,16.70
2023-08-09T15:35:16.732Z,16.70
2023-08-09T15:37:44.417Z,16.70
2023-08-09T15:40:13.439Z,16.60
2023-08-09T15:42:41.700Z,16.60
2023-08-09T15:45:08.950Z,16.60
2023-08-09T15:47:35.805Z,16.70
2023-08-09T15:50:02.877Z,16.60
2023-08-09T15:52:30.558Z,16.50
2023-08-09T15:54:57.524Z,16.60
2023-08-09T15:57:24.352Z,16.70
2023-08-09T15:59:51.298Z,17.00
2023-08-09T16:02:18.205Z,17.10
2023-08-09T16:04:45.161Z,17.00
2023-08-09T16:07:12.372Z,17.20
2023-08-09T16:09:40.118Z,17.40
2023-08-09T16:12:12.198Z,17.40
2023-08-09T16:14:39.401Z,17.40
2023-08-09T16:17:06.612Z,17.50
2023-08-09T16:19:33.674Z,17.50
2023-08-09T16:22:00.537Z,17.50
2023-08-09T16:24:28.432Z,17.60
2023-08-09T16:26:55.307Z,17.60
2023-08-09T16:29:22.094Z,17.60
2023-08-09T16:31:49.050Z,17.70
2023-08-09T16:34:15.849Z,17.60
2023-08-09T16:36:42.640Z,17.70
2023-08-09T16:39:09.454Z,17.70
2023-08-09T16:41:36.263Z,17.70
2023-08-09T16:44:03.141Z,17.80
2023-08-09T16:46:30.227Z,17.70
2023-08-09T16:48:57.078Z,17.80
2023-08-09T16:51:23.937Z,17.80
2023-08-09T16:53:50.821Z,17.70
2023-08-09T16:56:17.631Z,17.90
2023-08-09T16:58:44.445Z,17.90
2023-08-09T17:01:13.577Z,17.70
2023-08-09T17:03:40.629Z,17.60
2023-08-09T17:06:08.767Z,17.60
2023-08-09T17:08:35.637Z,17.50
2023-08-09T17:11:02.409Z,17.40
2023-08-09T17:13:29.305Z,17.30
2023-08-09T17:15:56.145Z,17.40
2023-08-09T17:18:23.052Z,17.40
2023-08-09T17:20:50.042Z,17.20
2023-08-09T17:23:17.419Z,16.80
2023-08-09T17:25:44.233Z,16.70
2023-08-09T17:28:11.422Z,16.30
2023-08-09T17:30:38.817Z,16.20
2023-08-09T17:33:05.704Z,16.00
2023-08-09T17:35:32.628Z,15.80
2023-08-09T17:38:02.607Z,15.60
2023-08-09T17:40:29.394Z,15.50
2023-08-09T17:42:56.196Z,15.40
2023-08-09T17:45:23.061Z,15.30
2023-08-09T17:47:49.895Z,15.30
2023-08-09T17:50:16.725Z,15.30
2023-08-09T17:52:43.537Z,15.20
2023-08-09T17:55:10.501Z,15.10
2023-08-09T17:57:46.616Z,15.10
2023-08-09T18:00:15.084Z,14.90
2023-08-09T18:02:42.197Z,14.80
2023-08-09T18:05:10.990Z,14.70
2023-08-09T18:07:40.705Z,14.60
2023-08-09T18:10:08.346Z,14.50
2023-08-09T18:12:35.606Z,14.40
2023-08-09T18:15:02.845Z,14.70
2023-08-09T18:17:29.969Z,14.20
2023-08-09T18:20:00.324Z,14.20
2023-08-09T18:22:33.827Z,14.00
2023-08-09T18:25:03.081Z,14.00
2023-08-09T18:27:29.862Z,13.90
2023-08-09T18:29:56.748Z,13.90
2023-08-09T18:32:23.675Z,14.20
2023-08-09T18:34:50.962Z,13.90
2023-08-09T18:37:19.150Z,13.90
2023-08-09T18:39:45.968Z,13.80
2023-08-09T18:42:12.848Z,13.80
2023-08-09T18:44:39.560Z,13.80
2023-08-09T18:47:06.916Z,13.80
2023-08-09T18:49:33.699Z,13.90
2023-08-09T18:52:00.541Z,13.80
2023-08-09T18:54:27.416Z,13.80
2023-08-09T18:56:54.275Z,13.70
2023-08-09T18:59:21.105Z,13.60
2023-08-09T19:01:49.922Z,13.60
2023-08-09T19:04:17.296Z,13.60
2023-08-09T19:06:44.173Z,13.50
2023-08-09T19:09:11.229Z,13.50
2023-08-09T19:11:38.080Z,13.40
2023-08-09T19:14:05.966Z,13.40
2023-08-09T19:16:33.050Z,13.40
2023-08-09T19:18:59.932Z,13.40
2023-08-09T19:21:27.025Z,13.40
2023-08-09T19:23:54.820Z,13.30
2023-08-09T19:26:21.613Z,13.30
2023-08-09T19:28:48.408Z,13.20
2023-08-09T19:31:15.400Z,13.30
2023-08-09T19:33:42.943Z,13.30
2023-08-09T19:36:10.066Z,13.20
2023-08-09T19:38:36.986Z,13.10
2023-08-09T19:41:03.910Z,13.20
2023-08-09T19:43:30.700Z,13.20
2023-08-09T19:45:57.504Z,13.30
2023-08-09T19:48:24.332Z,13.40
2023-08-09T19:50:52.413Z,13.30
2023-08-09T19:53:21.254Z,13.20
2023-08-09T19:55:48.428Z,13.20
2023-08-09T19:58:15.152Z,13.20
2023-08-09T20:00:43.210Z,13.10
2023-08-09T20:03:10.339Z,13.10
2023-08-09T20:05:37.941Z,13.10
2023-08-09T20:08:05.717Z,13.10
2023-08-09T20:10:33.778Z,13.00
2023-08-09T20:13:00.719Z,12.90
2023-08-09T20:15:27.609Z,12.90
2023-08-09T20:17:54.438Z,12.90
2023-08-09T20:20:26.888Z,13.00
2023-08-09T20:22:55.530Z,13.00
2023-08-09T20:25:23.048Z,13.00
2023-08-09T20:27:49.853Z,12.90
2023-08-09T20:30:16.781Z,12.90
2023-08-09T20:32:43.589Z,13.10
2023-08-09T20:35:10.891Z,13.10
2023-08-09T20:37:39.080Z,13.00
2023-08-09T20:40:06.685Z,13.10
2023-08-09T20:42:33.678Z,13.00
2023-08-09T20:45:00.472Z,12.90
2023-08-09T20:47:27.412Z,12.80
2023-08-09T20:49:54.226Z,12.90
2023-08-09T20:52:21.069Z,12.80
2023-08-09T20:54:47.981Z,12.90
2023-08-09T20:57:14.795Z,12.80
2023-08-09T20:59:42.124Z,12.90
2023-08-09T21:02:09.943Z,12.90
2023-08-09T21:04:36.902Z,12.90
2023-08-09T21:07:04.901Z,12.80
2023-08-09T21:09:31.904Z,12.80
2023-08-09T21:11:58.784Z,12.60
2023-08-09T21:14:25.595Z,12.50
2023-08-09T21:16:52.858Z,12.50
2023-08-09T21:19:20.707Z,12.40
2023-08-09T21:21:47.838Z,12.30
2023-08-09T21:26:44.756Z,12.20
2023-08-09T21:29:11.746Z,12.20
2023-08-09T21:31:38.586Z,12.20
2023-08-09T21:34:05.455Z,12.10
2023-08-09T21:36:32.276Z,12.10
2023-08-09T21:38:59.091Z,12.20
2023-08-09T21:41:26.628Z,12.30
2023-08-09T21:43:53.516Z,12.20
2023-08-09T21:46:20.796Z,12.20
2023-08-09T21:48:47.605Z,12.20
2023-08-09T21:51:14.646Z,12.10
2023-08-09T21:53:41.435Z,12.20
2023-08-09T21:56:08.275Z,12.10
2023-08-09T21:58:35.105Z,12.20
2023-08-09T22:01:01.946Z,12.10
2023-08-09T22:03:28.827Z,12.10
2023-08-09T22:05:55.839Z,12.10
2023-08-09T22:08:22.968Z,12.00
2023-08-09T22:10:49.843Z,12.00
2023-08-09T22:13:16.759Z,11.90
2023-08-09T22:15:43.740Z,11.90
2023-08-09T22:18:17.552Z,11.90
2023-08-09T22:21:10.194Z,11.90
2023-08-09T22:23:38.142Z,11.80
2023-08-09T22:26:05.001Z,11.80
2023-08-09T22:28:31.799Z,11.70
2023-08-09T22:30:58.602Z,11.70
2023-08-09T22:33:25.431Z,11.60
2023-08-09T22:35:55.151Z,11.70
2023-08-09T22:38:22.625Z,11.60
2023-08-09T22:40:49.403Z,11.50
2023-08-09T22:43:16.488Z,11.40
2023-08-09T22:45:44.443Z,11.40
2023-08-09T22:48:11.414Z,11.30
2023-08-09T22:50:38.632Z,11.40
2023-08-09T22:53:05.485Z,11.50
2023-08-09T22:55:32.745Z,11.50
2023-08-09T22:57:59.596Z,11.60
2023-08-09T23:00:26.763Z,11.60
2023-08-09T23:02:53.676Z,11.80
2023-08-09T23:05:21.083Z,11.70
2023-08-09T23:07:47.945Z,11.70
2023-08-09T23:10:15.104Z,11.50
2023-08-09T23:12:41.905Z,11.40
2023-08-09T23:15:09.007Z,11.30
2023-08-09T23:17:35.839Z,11.40
2023-08-09T23:20:02.733Z,11.30
2023-08-09T23:22:29.601Z,11.30
2023-08-09T23:24:56.473Z,11.30
2023-08-09T23:27:24.204Z,11.30
2023-08-09T23:29:51.029Z,11.30
2023-08-09T23:32:17.834Z,11.30
2023-08-09T23:34:44.799Z,11.30
2023-08-09T23:37:11.834Z,11.30
2023-08-09T23:39:38.715Z,11.10
2023-08-09T23:42:07.814Z,11.20
2023-08-09T23:44:35.899Z,11.10
2023-08-09T23:47:03.259Z,11.10
2023-08-09T23:49:30.111Z,11.10
2023-08-09T23:51:57.019Z,11.10
2023-08-09T23:54:24.098Z,11.00
2023-08-09T23:56:50.867Z,11.00
2023-08-09T23:59:17.790Z,10.90
